Share

Peach Springs, AZ (86434)

Kingman (KIGM) Elev 3448 ft | 35.26 °N, 113.93 °W | Change Station

Current weather conditions updated 26 minutes ago

Clear
Clear
76 °F
Feels Like 76 °F
N
10
Wind Variable Wind from North
Sunrise 5:59 AM
Sunset 7:08 PM
Moon Waning Gibbous

Tomorrow is forecast to be nearly the same temperature as today.

Pressure 29.63 in
Visibility 10.0 miles
Clouds Clear
Dew Point 12 °F
Humidity 9%
Rainfall 0.00 in
Snow Depth Not available.
UV 0 out of 16
Pollen 9.90 out of 12
Air Quality Not available.
Flu Activity Local Activity
METAR KIGM 170151Z AUTO 35009KT 10SM CLR 24/M11 A2980 RMK AO2 SLP034 T02441111

More Conditions Fewer Conditions

Pressure 29.63 in
Visibility 10.0 miles
Clouds Clear
Dew Point 12 °F
Humidity 9%
Rainfall 0.00 in
Snow Depth Not available.
UV 0 out of 16
Pollen 9.90 out of 12
Air Quality Not available.
Flu Activity Local Activity
METAR KIGM 170151Z AUTO 35009KT 10SM CLR 24/M11 A2980 RMK AO2 SLP034 T02441111

More Conditions Fewer Conditions

10-Day Forecast

Almanac

Astronomy

Apr. 16, 2014 Rise Set
Actual Time 5:59 AM MST 7:08 PM MST
Civil Twilight 5:33 AM MST 7:34 PM MST
Nautical Twilight 5:02 AM MST 8:05 PM MST
Astronomical Twilight 4:29 AM MST 8:38 PM MST
Moon 8:52 PM MST (4/16) 6:52 AM MST (4/16)
Length of Visible Light 14h 00m
Length of Day
13h 08m
Tomorrow will be 2m 7s longer.
Waning Gibbous, 96% of the Moon is Illuminated
Today
Waning Gibbous
Apr 22
Last Quarter
Apr 29
New
May 6
First Quarter
May 14
Full

Today's Extremes

State Highs State Lows

Community

  • symphony in blue....
    symphony in blue....
  • Dawn Surprise
    Dawn Surprise
  • Yucca delight
    Yucca delight
  • Sunset inside of the Ocean
    Sunset inside of the Ocean
  • Lunar eclipse 15 April 2014
    Lunar eclipse 15 April 2014

WunderPhotos

Upload Photos

1,701,803 photos uploaded!

WunderBlogs® & News

Nearby

Snow Depth

Station Depth Elevation
Snowslide Canyon 9 in 9730 ft
Happy Jack 0 in 7630 ft
Heber 0 in 7640 ft
Workman Creek 0 in 6900 ft

Coastal Water Temperatures

Place Temperature
No Stations Reporting

Earthquake Activity

City Distance Mag. Time & Date
No recent earthquake activity has been reported nearby.
Minimum magnitude displayed is 2.5.

Nearby Weather Stations

Station Location Temp. Heat Index Dew Point Humidity Wind Precip. Elev Updated Type
RAWS MUSIC MOUNTAIN AZ, Kingman, AZ 71 °F 72 °F 14 °F 11% WNW  at  9 mph 0.00 in / hr 5375 ft 5:52 PM MST MADIS
Hualapai Valley Observatory, Kingman, AZ 75.6 °F 75 °F 15 °F 10% NNW  at  3.0 mph 0.00 in / hr 2927 ft 7:16 PM MST Normal

Show More Stations Show Fewer Stations

What do you think?

We're not finished. Please let us know what you like, what you don't like, and what you are still missing.